sensor_id;sensor_type;location;lat;lon;timestamp;P1;durP1;ratioP1;P2;durP2;ratioP2
4428;SDS011;2227;47.810;8.810;2023-04-25T03:49:17;731.72;;;658.40;;
4428;SDS011;2227;47.810;8.810;2023-04-25T03:51:44;729.83;;;656.67;;
4428;SDS011;2227;47.810;8.810;2023-04-25T03:54:11;729.53;;;656.42;;
4428;SDS011;2227;47.810;8.810;2023-04-25T03:56:38;729.72;;;656.90;;
4428;SDS011;2227;47.810;8.810;2023-04-25T03:59:04;726.33;;;653.63;;
4428;SDS011;2227;47.810;8.810;2023-04-25T04:01:31;748.58;;;674.80;;
4428;SDS011;2227;47.810;8.810;2023-04-25T04:03:58;728.33;;;655.53;;
4428;SDS011;2227;47.810;8.810;2023-04-25T04:06:25;734.83;;;661.92;;
4428;SDS011;2227;47.810;8.810;2023-04-25T04:08:51;732.22;;;659.42;;
4428;SDS011;2227;47.810;8.810;2023-04-25T04:11:18;724.45;;;651.85;;
4428;SDS011;2227;47.810;8.810;2023-04-25T04:13:45;731.95;;;659.40;;
4428;SDS011;2227;47.810;8.810;2023-04-25T04:16:11;730.03;;;657.42;;
4428;SDS011;2227;47.810;8.810;2023-04-25T04:18:38;733.72;;;660.53;;
4428;SDS011;2227;47.810;8.810;2023-04-25T04:21:05;728.33;;;655.58;;
4428;SDS011;2227;47.810;8.810;2023-04-25T04:23:32;730.15;;;657.47;;
4428;SDS011;2227;47.810;8.810;2023-04-25T04:25:58;727.35;;;654.67;;
4428;SDS011;2227;47.810;8.810;2023-04-25T04:28:25;749.28;;;675.42;;
4428;SDS011;2227;47.810;8.810;2023-04-25T04:30:52;736.90;;;664.00;;
4428;SDS011;2227;47.810;8.810;2023-04-25T04:33:19;731.88;;;659.17;;
4428;SDS011;2227;47.810;8.810;2023-04-25T04:35:46;735.60;;;662.85;;
4428;SDS011;2227;47.810;8.810;2023-04-25T04:38:13;740.67;;;667.77;;
4428;SDS011;2227;47.810;8.810;2023-04-25T04:40:41;733.88;;;661.00;;
4428;SDS011;2227;47.810;8.810;2023-04-25T04:43:12;749.72;;;676.30;;
4428;SDS011;2227;47.810;8.810;2023-04-25T04:45:39;734.50;;;661.80;;
4428;SDS011;2227;47.810;8.810;2023-04-25T04:48:06;754.05;;;680.45;;
4428;SDS011;2227;47.810;8.810;2023-04-25T04:50:33;749.80;;;676.33;;
4428;SDS011;2227;47.810;8.810;2023-04-25T04:53:00;740.88;;;667.60;;
4428;SDS011;2227;47.810;8.810;2023-04-25T04:55:26;755.38;;;681.58;;
4428;SDS011;2227;47.810;8.810;2023-04-25T04:57:53;735.38;;;662.20;;
4428;SDS011;2227;47.810;8.810;2023-04-25T05:00:20;724.50;;;651.70;;
4428;SDS011;2227;47.810;8.810;2023-04-25T05:02:47;737.83;;;664.65;;
4428;SDS011;2227;47.810;8.810;2023-04-25T05:05:14;751.60;;;677.97;;
4428;SDS011;2227;47.810;8.810;2023-04-25T05:07:40;735.35;;;662.15;;
4428;SDS011;2227;47.810;8.810;2023-04-25T05:10:07;752.33;;;678.47;;
4428;SDS011;2227;47.810;8.810;2023-04-25T05:12:34;749.25;;;675.58;;
4428;SDS011;2227;47.810;8.810;2023-04-25T05:15:02;753.42;;;679.92;;
4428;SDS011;2227;47.810;8.810;2023-04-25T05:17:29;752.55;;;678.60;;
4428;SDS011;2227;47.810;8.810;2023-04-25T05:19:56;759.35;;;685.63;;
4428;SDS011;2227;47.810;8.810;2023-04-25T05:22:23;754.70;;;681.28;;
4428;SDS011;2227;47.810;8.810;2023-04-25T05:24:49;761.70;;;687.70;;
4428;SDS011;2227;47.810;8.810;2023-04-25T05:27:20;749.17;;;675.58;;
4428;SDS011;2227;47.810;8.810;2023-04-25T05:29:47;758.70;;;685.07;;
4428;SDS011;2227;47.810;8.810;2023-04-25T05:32:14;770.47;;;697.17;;
4428;SDS011;2227;47.810;8.810;2023-04-25T05:34:41;766.93;;;693.53;;
4428;SDS011;2227;47.810;8.810;2023-04-25T05:37:08;762.85;;;689.65;;
4428;SDS011;2227;47.810;8.810;2023-04-25T05:39:34;767.08;;;693.75;;
4428;SDS011;2227;47.810;8.810;2023-04-25T05:42:01;772.40;;;698.90;;
4428;SDS011;2227;47.810;8.810;2023-04-25T05:44:30;773.55;;;700.00;;
4428;SDS011;2227;47.810;8.810;2023-04-25T05:46:57;776.03;;;702.42;;
4428;SDS011;2227;47.810;8.810;2023-04-25T05:49:24;786.70;;;712.80;;
4428;SDS011;2227;47.810;8.810;2023-04-25T05:51:51;790.97;;;717.08;;
4428;SDS011;2227;47.810;8.810;2023-04-25T05:54:17;789.65;;;715.95;;
4428;SDS011;2227;47.810;8.810;2023-04-25T05:56:44;809.75;;;735.47;;
4428;SDS011;2227;47.810;8.810;2023-04-25T05:59:11;808.83;;;734.97;;
4428;SDS011;2227;47.810;8.810;2023-04-25T06:01:37;809.95;;;735.83;;
4428;SDS011;2227;47.810;8.810;2023-04-25T06:04:04;812.97;;;738.88;;
4428;SDS011;2227;47.810;8.810;2023-04-25T06:06:31;814.42;;;740.45;;
4428;SDS011;2227;47.810;8.810;2023-04-25T06:08:58;815.45;;;741.85;;
4428;SDS011;2227;47.810;8.810;2023-04-25T06:11:24;819.40;;;745.50;;
4428;SDS011;2227;47.810;8.810;2023-04-25T06:13:51;831.15;;;756.67;;
4428;SDS011;2227;47.810;8.810;2023-04-25T06:16:18;823.60;;;749.60;;
4428;SDS011;2227;47.810;8.810;2023-04-25T06:18:45;817.45;;;743.85;;
4428;SDS011;2227;47.810;8.810;2023-04-25T06:21:12;828.75;;;755.03;;
4428;SDS011;2227;47.810;8.810;2023-04-25T06:23:38;826.95;;;753.05;;
4428;SDS011;2227;47.810;8.810;2023-04-25T06:26:05;834.28;;;760.30;;
4428;SDS011;2227;47.810;8.810;2023-04-25T06:28:32;829.08;;;755.35;;
4428;SDS011;2227;47.810;8.810;2023-04-25T06:30:58;840.42;;;766.28;;
4428;SDS011;2227;47.810;8.810;2023-04-25T06:33:25;834.17;;;760.30;;
4428;SDS011;2227;47.810;8.810;2023-04-25T06:35:52;837.20;;;763.03;;
4428;SDS011;2227;47.810;8.810;2023-04-25T06:38:19;826.70;;;753.07;;
4428;SDS011;2227;47.810;8.810;2023-04-25T06:40:46;842.17;;;767.78;;
4428;SDS011;2227;47.810;8.810;2023-04-25T06:43:13;830.95;;;757.00;;
4428;SDS011;2227;47.810;8.810;2023-04-25T06:45:39;824.87;;;751.00;;
4428;SDS011;2227;47.810;8.810;2023-04-25T06:48:06;834.05;;;760.10;;
4428;SDS011;2227;47.810;8.810;2023-04-25T06:50:33;831.50;;;757.47;;
4428;SDS011;2227;47.810;8.810;2023-04-25T06:53:00;830.75;;;756.83;;
4428;SDS011;2227;47.810;8.810;2023-04-25T06:55:27;832.88;;;759.08;;
4428;SDS011;2227;47.810;8.810;2023-04-25T06:57:54;827.70;;;753.73;;
4428;SDS011;2227;47.810;8.810;2023-04-25T07:00:20;833.25;;;759.38;;
4428;SDS011;2227;47.810;8.810;2023-04-25T07:02:47;826.08;;;752.22;;
4428;SDS011;2227;47.810;8.810;2023-04-25T07:05:14;824.00;;;749.40;;
4428;SDS011;2227;47.810;8.810;2023-04-25T07:07:44;817.38;;;741.97;;
4428;SDS011;2227;47.810;8.810;2023-04-25T07:10:11;811.60;;;736.67;;
4428;SDS011;2227;47.810;8.810;2023-04-25T07:12:37;796.03;;;721.13;;
4428;SDS011;2227;47.810;8.810;2023-04-25T07:15:04;801.25;;;725.50;;
4428;SDS011;2227;47.810;8.810;2023-04-25T07:17:32;789.90;;;714.00;;
4428;SDS011;2227;47.810;8.810;2023-04-25T07:19:59;772.80;;;697.30;;
4428;SDS011;2227;47.810;8.810;2023-04-25T07:22:26;763.45;;;687.67;;
4428;SDS011;2227;47.810;8.810;2023-04-25T07:24:53;762.33;;;687.28;;
4428;SDS011;2227;47.810;8.810;2023-04-25T07:27:20;766.85;;;691.60;;
4428;SDS011;2227;47.810;8.810;2023-04-25T07:29:46;735.97;;;661.50;;
4428;SDS011;2227;47.810;8.810;2023-04-25T07:32:13;756.17;;;681.58;;
4428;SDS011;2227;47.810;8.810;2023-04-25T07:34:40;753.58;;;678.17;;
4428;SDS011;2227;47.810;8.810;2023-04-25T07:37:07;733.28;;;658.85;;
4428;SDS011;2227;47.810;8.810;2023-04-25T07:39:34;737.30;;;663.08;;
4428;SDS011;2227;47.810;8.810;2023-04-25T07:42:01;733.28;;;659.45;;
4428;SDS011;2227;47.810;8.810;2023-04-25T07:44:28;755.92;;;681.50;;
4428;SDS011;2227;47.810;8.810;2023-04-25T07:46:56;756.38;;;682.10;;
4428;SDS011;2227;47.810;8.810;2023-04-25T07:49:23;769.47;;;695.45;;
4428;SDS011;2227;47.810;8.810;2023-04-25T07:51:50;763.67;;;690.17;;
4428;SDS011;2227;47.810;8.810;2023-04-25T07:54:17;773.27;;;699.47;;
4428;SDS011;2227;47.810;8.810;2023-04-25T07:56:43;766.70;;;692.92;;
4428;SDS011;2227;47.810;8.810;2023-04-25T07:59:18;772.45;;;698.75;;
4428;SDS011;2227;47.810;8.810;2023-04-25T08:01:45;781.38;;;707.78;;
4428;SDS011;2227;47.810;8.810;2023-04-25T08:04:12;775.17;;;701.42;;
4428;SDS011;2227;47.810;8.810;2023-04-25T08:06:39;788.63;;;714.73;;
4428;SDS011;2227;47.810;8.810;2023-04-25T08:09:06;794.05;;;720.40;;
4428;SDS011;2227;47.810;8.810;2023-04-25T08:11:35;789.80;;;716.60;;
4428;SDS011;2227;47.810;8.810;2023-04-25T08:14:02;790.55;;;717.17;;
4428;SDS011;2227;47.810;8.810;2023-04-25T08:16:28;791.17;;;718.15;;
4428;SDS011;2227;47.810;8.810;2023-04-25T08:18:56;790.42;;;717.03;;
4428;SDS011;2227;47.810;8.810;2023-04-25T08:21:23;793.03;;;719.53;;
4428;SDS011;2227;47.810;8.810;2023-04-25T08:23:49;790.15;;;716.15;;
4428;SDS011;2227;47.810;8.810;2023-04-25T08:26:16;792.72;;;719.10;;
4428;SDS011;2227;47.810;8.810;2023-04-25T08:28:43;800.17;;;725.87;;
4428;SDS011;2227;47.810;8.810;2023-04-25T08:31:09;783.60;;;708.75;;
4428;SDS011;2227;47.810;8.810;2023-04-25T08:33:36;773.28;;;699.05;;
4428;SDS011;2227;47.810;8.810;2023-04-25T08:36:03;769.92;;;695.88;;
4428;SDS011;2227;47.810;8.810;2023-04-25T08:38:30;781.38;;;707.15;;
4428;SDS011;2227;47.810;8.810;2023-04-25T08:40:57;777.72;;;702.03;;
4428;SDS011;2227;47.810;8.810;2023-04-25T08:43:27;765.67;;;690.63;;
4428;SDS011;2227;47.810;8.810;2023-04-25T08:46:00;765.08;;;690.42;;
4428;SDS011;2227;47.810;8.810;2023-04-25T08:48:27;770.55;;;695.15;;
4428;SDS011;2227;47.810;8.810;2023-04-25T08:50:57;766.63;;;691.92;;
4428;SDS011;2227;47.810;8.810;2023-04-25T08:53:28;774.63;;;700.70;;
4428;SDS011;2227;47.810;8.810;2023-04-25T08:55:57;793.90;;;719.50;;
4428;SDS011;2227;47.810;8.810;2023-04-25T08:58:25;801.85;;;727.05;;
4428;SDS011;2227;47.810;8.810;2023-04-25T09:00:53;804.42;;;730.13;;
4428;SDS011;2227;47.810;8.810;2023-04-25T09:03:19;823.17;;;748.72;;
4428;SDS011;2227;47.810;8.810;2023-04-25T09:05:47;819.50;;;744.83;;
4428;SDS011;2227;47.810;8.810;2023-04-25T09:08:13;814.95;;;740.28;;
4428;SDS011;2227;47.810;8.810;2023-04-25T09:10:40;818.13;;;743.92;;
4428;SDS011;2227;47.810;8.810;2023-04-25T09:13:08;832.70;;;758.10;;
4428;SDS011;2227;47.810;8.810;2023-04-25T09:18:35;837.72;;;763.17;;
4428;SDS011;2227;47.810;8.810;2023-04-25T09:21:06;849.37;;;773.77;;
4428;SDS011;2227;47.810;8.810;2023-04-25T09:23:46;865.77;;;790.77;;
4428;SDS011;2227;47.810;8.810;2023-04-25T09:26:18;881.88;;;806.97;;
4428;SDS011;2227;47.810;8.810;2023-04-25T09:28:46;893.65;;;818.35;;
4428;SDS011;2227;47.810;8.810;2023-04-25T09:31:23;893.40;;;818.50;;
4428;SDS011;2227;47.810;8.810;2023-04-25T09:33:52;900.25;;;825.47;;
4428;SDS011;2227;47.810;8.810;2023-04-25T09:36:27;901.13;;;826.33;;
4428;SDS011;2227;47.810;8.810;2023-04-25T09:38:57;899.38;;;825.00;;
4428;SDS011;2227;47.810;8.810;2023-04-25T09:41:25;898.60;;;824.00;;
4428;SDS011;2227;47.810;8.810;2023-04-25T09:43:52;898.75;;;824.25;;
4428;SDS011;2227;47.810;8.810;2023-04-25T09:46:23;898.33;;;822.88;;
4428;SDS011;2227;47.810;8.810;2023-04-25T09:48:50;896.38;;;821.25;;
4428;SDS011;2227;47.810;8.810;2023-04-25T09:51:19;887.10;;;812.22;;
4428;SDS011;2227;47.810;8.810;2023-04-25T09:53:46;893.17;;;817.42;;
4428;SDS011;2227;47.810;8.810;2023-04-25T09:56:17;895.25;;;819.60;;
4428;SDS011;2227;47.810;8.810;2023-04-25T09:58:45;892.58;;;817.72;;
4428;SDS011;2227;47.810;8.810;2023-04-25T10:01:15;895.88;;;820.63;;
4428;SDS011;2227;47.810;8.810;2023-04-25T10:03:43;895.72;;;819.80;;
4428;SDS011;2227;47.810;8.810;2023-04-25T10:06:14;889.83;;;814.33;;
4428;SDS011;2227;47.810;8.810;2023-04-25T10:08:45;894.10;;;818.40;;
4428;SDS011;2227;47.810;8.810;2023-04-25T10:11:17;888.67;;;813.38;;
4428;SDS011;2227;47.810;8.810;2023-04-25T10:13:44;891.20;;;816.50;;
4428;SDS011;2227;47.810;8.810;2023-04-25T10:16:11;901.13;;;825.75;;
4428;SDS011;2227;47.810;8.810;2023-04-25T10:18:39;908.78;;;833.58;;
4428;SDS011;2227;47.810;8.810;2023-04-25T10:21:05;913.92;;;839.03;;
4428;SDS011;2227;47.810;8.810;2023-04-25T10:23:33;925.85;;;850.35;;
4428;SDS011;2227;47.810;8.810;2023-04-25T10:26:00;942.55;;;865.53;;
4428;SDS011;2227;47.810;8.810;2023-04-25T10:28:27;934.28;;;857.97;;
4428;SDS011;2227;47.810;8.810;2023-04-25T10:30:58;929.58;;;853.95;;
4428;SDS011;2227;47.810;8.810;2023-04-25T10:33:31;967.40;;;891.28;;
4428;SDS011;2227;47.810;8.810;2023-04-25T10:36:14;975.80;;;900.25;;
4428;SDS011;2227;47.810;8.810;2023-04-25T10:38:44;986.20;;;910.80;;
4428;SDS011;2227;47.810;8.810;2023-04-25T10:41:12;989.33;;;913.67;;
4428;SDS011;2227;47.810;8.810;2023-04-25T10:43:40;980.38;;;904.70;;
4428;SDS011;2227;47.810;8.810;2023-04-25T10:46:24;978.30;;;901.28;;
4428;SDS011;2227;47.810;8.810;2023-04-25T10:48:53;969.85;;;893.55;;
4428;SDS011;2227;47.810;8.810;2023-04-25T10:51:34;951.38;;;874.70;;
4428;SDS011;2227;47.810;8.810;2023-04-25T10:54:21;936.65;;;861.85;;
4428;SDS011;2227;47.810;8.810;2023-04-25T10:56:49;940.37;;;865.77;;
4428;SDS011;2227;47.810;8.810;2023-04-25T10:59:17;944.58;;;870.40;;
4428;SDS011;2227;47.810;8.810;2023-04-25T11:01:46;954.90;;;880.20;;
4428;SDS011;2227;47.810;8.810;2023-04-25T11:04:19;952.42;;;877.95;;
4428;SDS011;2227;47.810;8.810;2023-04-25T11:07:03;948.30;;;874.30;;
4428;SDS011;2227;47.810;8.810;2023-04-25T11:09:49;962.10;;;886.70;;
4428;SDS011;2227;47.810;8.810;2023-04-25T11:12:16;967.35;;;893.03;;
4428;SDS011;2227;47.810;8.810;2023-04-25T11:14:43;969.30;;;895.35;;
4428;SDS011;2227;47.810;8.810;2023-04-25T11:17:10;988.15;;;913.97;;
4428;SDS011;2227;47.810;8.810;2023-04-25T11:19:37;1003.83;;;929.90;;
4428;SDS011;2227;47.810;8.810;2023-04-25T11:22:04;1041.95;;;967.72;;
4428;SDS011;2227;47.810;8.810;2023-04-25T11:24:32;1047.95;;;972.65;;
4428;SDS011;2227;47.810;8.810;2023-04-25T11:27:01;1048.38;;;972.88;;
4428;SDS011;2227;47.810;8.810;2023-04-25T11:29:30;1024.63;;;949.25;;
4428;SDS011;2227;47.810;8.810;2023-04-25T11:31:57;998.95;;;924.05;;
4428;SDS011;2227;47.810;8.810;2023-04-25T11:34:24;997.43;;;922.33;;
4428;SDS011;2227;47.810;8.810;2023-04-25T11:36:52;1008.85;;;934.58;;
4428;SDS011;2227;47.810;8.810;2023-04-25T11:39:20;1014.97;;;940.58;;
4428;SDS011;2227;47.810;8.810;2023-04-25T11:41:47;1020.70;;;946.67;;
4428;SDS011;2227;47.810;8.810;2023-04-25T11:44:17;1022.15;;;948.05;;
4428;SDS011;2227;47.810;8.810;2023-04-25T11:46:44;1014.38;;;940.28;;
4428;SDS011;2227;47.810;8.810;2023-04-25T11:49:12;1003.45;;;929.47;;
4428;SDS011;2227;47.810;8.810;2023-04-25T11:51:48;1001.92;;;927.83;;
4428;SDS011;2227;47.810;8.810;2023-04-25T11:54:15;1014.15;;;939.85;;
4428;SDS011;2227;47.810;8.810;2023-04-25T11:56:43;1032.68;;;958.25;;
4428;SDS011;2227;47.810;8.810;2023-04-25T11:59:10;1041.05;;;966.35;;
4428;SDS011;2227;47.810;8.810;2023-04-25T12:01:38;1033.00;;;957.65;;
4428;SDS011;2227;47.810;8.810;2023-04-25T12:04:13;1030.30;;;955.65;;
4428;SDS011;2227;47.810;8.810;2023-04-25T12:06:41;1040.93;;;965.15;;
4428;SDS011;2227;47.810;8.810;2023-04-25T12:09:10;1038.72;;;963.80;;
4428;SDS011;2227;47.810;8.810;2023-04-25T12:11:42;1042.63;;;967.13;;
4428;SDS011;2227;47.810;8.810;2023-04-25T12:14:10;1047.70;;;973.10;;
4428;SDS011;2227;47.810;8.810;2023-04-25T12:16:41;1052.40;;;978.28;;
4428;SDS011;2227;47.810;8.810;2023-04-25T12:19:09;1056.43;;;982.33;;
4428;SDS011;2227;47.810;8.810;2023-04-25T12:21:40;1056.50;;;982.38;;
4428;SDS011;2227;47.810;8.810;2023-04-25T12:24:23;1048.40;;;975.35;;
4428;SDS011;2227;47.810;8.810;2023-04-25T12:27:01;1048.85;;;975.85;;
4428;SDS011;2227;47.810;8.810;2023-04-25T12:29:33;1050.60;;;977.23;;
4428;SDS011;2227;47.810;8.810;2023-04-25T12:32:14;1054.40;;;981.00;;
4428;SDS011;2227;47.810;8.810;2023-04-25T12:34:42;1047.72;;;974.20;;
4428;SDS011;2227;47.810;8.810;2023-04-25T12:37:08;1051.82;;;978.92;;
4428;SDS011;2227;47.810;8.810;2023-04-25T12:39:35;1056.95;;;984.45;;
4428;SDS011;2227;47.810;8.810;2023-04-25T12:42:02;1064.13;;;991.25;;
4428;SDS011;2227;47.810;8.810;2023-04-25T12:44:33;1074.35;;;999.90;;
4428;SDS011;2227;47.810;8.810;2023-04-25T12:47:00;1087.38;;;999.90;;
4428;SDS011;2227;47.810;8.810;2023-04-25T12:49:27;1092.68;;;999.90;;
4428;SDS011;2227;47.810;8.810;2023-04-25T12:51:53;1095.03;;;999.90;;
4428;SDS011;2227;47.810;8.810;2023-04-25T12:54:20;1091.25;;;999.90;;
4428;SDS011;2227;47.810;8.810;2023-04-25T12:56:49;1091.90;;;999.90;;
4428;SDS011;2227;47.810;8.810;2023-04-25T12:59:16;1104.10;;;999.90;;
4428;SDS011;2227;47.810;8.810;2023-04-25T13:01:43;1105.55;;;999.90;;
4428;SDS011;2227;47.810;8.810;2023-04-25T13:04:11;1107.90;;;999.90;;
4428;SDS011;2227;47.810;8.810;2023-04-25T13:06:38;1096.70;;;999.90;;
4428;SDS011;2227;47.810;8.810;2023-04-25T13:09:05;1092.45;;;999.90;;
4428;SDS011;2227;47.810;8.810;2023-04-25T13:11:32;1093.50;;;999.90;;
4428;SDS011;2227;47.810;8.810;2023-04-25T13:14:00;1079.63;;;999.90;;
4428;SDS011;2227;47.810;8.810;2023-04-25T13:16:27;1081.90;;;999.90;;
4428;SDS011;2227;47.810;8.810;2023-04-25T13:18:53;1075.82;;;999.90;;
4428;SDS011;2227;47.810;8.810;2023-04-25T13:21:22;1068.13;;;995.33;;
4428;SDS011;2227;47.810;8.810;2023-04-25T13:23:49;1067.33;;;994.50;;
4428;SDS011;2227;47.810;8.810;2023-04-25T13:26:17;1069.43;;;997.17;;
4428;SDS011;2227;47.810;8.810;2023-04-25T13:28:43;1067.05;;;995.10;;
4428;SDS011;2227;47.810;8.810;2023-04-25T13:31:10;1071.00;;;999.03;;
4428;SDS011;2227;47.810;8.810;2023-04-25T13:33:37;1068.63;;;996.60;;
4428;SDS011;2227;47.810;8.810;2023-04-25T13:36:04;1071.00;;;999.10;;
4428;SDS011;2227;47.810;8.810;2023-04-25T13:38:31;1068.70;;;996.60;;
4428;SDS011;2227;47.810;8.810;2023-04-25T13:40:58;1064.25;;;990.05;;
4428;SDS011;2227;47.810;8.810;2023-04-25T13:43:24;1057.85;;;984.63;;
4428;SDS011;2227;47.810;8.810;2023-04-25T13:45:51;1050.70;;;976.80;;
4428;SDS011;2227;47.810;8.810;2023-04-25T13:48:18;1048.22;;;974.72;;
4428;SDS011;2227;47.810;8.810;2023-04-25T13:50:45;1048.90;;;974.55;;
4428;SDS011;2227;47.810;8.810;2023-04-25T13:53:12;1033.50;;;959.60;;
4428;SDS011;2227;47.810;8.810;2023-04-25T13:55:39;1021.78;;;946.00;;
4428;SDS011;2227;47.810;8.810;2023-04-25T13:58:06;1001.75;;;928.35;;
4428;SDS011;2227;47.810;8.810;2023-04-25T14:00:36;1003.22;;;929.72;;
4428;SDS011;2227;47.810;8.810;2023-04-25T14:03:09;1007.83;;;934.33;;
4428;SDS011;2227;47.810;8.810;2023-04-25T14:05:36;1007.65;;;933.45;;
4428;SDS011;2227;47.810;8.810;2023-04-25T14:08:08;1005.90;;;932.42;;
4428;SDS011;2227;47.810;8.810;2023-04-25T14:10:36;1002.08;;;928.95;;
4428;SDS011;2227;47.810;8.810;2023-04-25T14:13:03;998.10;;;924.50;;
4428;SDS011;2227;47.810;8.810;2023-04-25T14:15:33;1002.38;;;928.15;;
4428;SDS011;2227;47.810;8.810;2023-04-25T14:18:00;996.00;;;922.53;;
4428;SDS011;2227;47.810;8.810;2023-04-25T14:20:27;1001.30;;;927.92;;
4428;SDS011;2227;47.810;8.810;2023-04-25T14:22:54;997.60;;;923.80;;
4428;SDS011;2227;47.810;8.810;2023-04-25T14:25:23;1007.88;;;934.67;;
4428;SDS011;2227;47.810;8.810;2023-04-25T14:27:50;1003.92;;;930.72;;
4428;SDS011;2227;47.810;8.810;2023-04-25T14:30:17;1006.33;;;933.33;;
4428;SDS011;2227;47.810;8.810;2023-04-25T14:32:45;1021.33;;;947.63;;
4428;SDS011;2227;47.810;8.810;2023-04-25T14:35:12;1020.10;;;947.22;;
4428;SDS011;2227;47.810;8.810;2023-04-25T14:37:39;1033.20;;;959.70;;
4428;SDS011;2227;47.810;8.810;2023-04-25T14:40:06;1035.97;;;962.40;;
4428;SDS011;2227;47.810;8.810;2023-04-25T14:42:36;1043.73;;;970.07;;
4428;SDS011;2227;47.810;8.810;2023-04-25T14:45:04;1045.83;;;972.27;;
4428;SDS011;2227;47.810;8.810;2023-04-25T14:47:33;1044.38;;;970.60;;
4428;SDS011;2227;47.810;8.810;2023-04-25T14:50:03;1043.28;;;970.20;;
4428;SDS011;2227;47.810;8.810;2023-04-25T14:52:31;1049.63;;;976.83;;
4428;SDS011;2227;47.810;8.810;2023-04-25T14:54:58;1051.10;;;978.03;;
4428;SDS011;2227;47.810;8.810;2023-04-25T14:57:27;1047.95;;;975.60;;
4428;SDS011;2227;47.810;8.810;2023-04-25T14:59:54;1051.30;;;979.05;;
4428;SDS011;2227;47.810;8.810;2023-04-25T15:02:21;1056.47;;;983.08;;
4428;SDS011;2227;47.810;8.810;2023-04-25T15:04:47;1052.85;;;979.55;;
4428;SDS011;2227;47.810;8.810;2023-04-25T15:07:14;1055.35;;;982.65;;
4428;SDS011;2227;47.810;8.810;2023-04-25T15:09:43;1056.53;;;983.63;;
4428;SDS011;2227;47.810;8.810;2023-04-25T15:12:10;1055.28;;;981.80;;
4428;SDS011;2227;47.810;8.810;2023-04-25T15:14:37;1058.10;;;984.60;;
4428;SDS011;2227;47.810;8.810;2023-04-25T15:17:04;1050.00;;;977.20;;
4428;SDS011;2227;47.810;8.810;2023-04-25T15:19:31;1049.77;;;976.87;;
4428;SDS011;2227;47.810;8.810;2023-04-25T15:21:58;1042.32;;;969.53;;
4428;SDS011;2227;47.810;8.810;2023-04-25T15:24:27;1041.03;;;968.22;;
4428;SDS011;2227;47.810;8.810;2023-04-25T15:26:54;1037.28;;;964.38;;
4428;SDS011;2227;47.810;8.810;2023-04-25T15:29:21;1025.13;;;952.00;;
4428;SDS011;2227;47.810;8.810;2023-04-25T15:31:48;1025.27;;;951.90;;
4428;SDS011;2227;47.810;8.810;2023-04-25T15:34:15;1016.55;;;943.47;;
4428;SDS011;2227;47.810;8.810;2023-04-25T15:36:41;1004.33;;;931.47;;
4428;SDS011;2227;47.810;8.810;2023-04-25T15:39:08;1002.70;;;929.50;;
4428;SDS011;2227;47.810;8.810;2023-04-25T15:41:35;1001.50;;;927.70;;
4428;SDS011;2227;47.810;8.810;2023-04-25T15:44:02;995.35;;;921.83;;
4428;SDS011;2227;47.810;8.810;2023-04-25T15:46:29;996.63;;;922.78;;
4428;SDS011;2227;47.810;8.810;2023-04-25T15:48:56;995.05;;;920.45;;
4428;SDS011;2227;47.810;8.810;2023-04-25T15:51:23;990.97;;;916.47;;
4428;SDS011;2227;47.810;8.810;2023-04-25T15:53:50;985.97;;;911.42;;
4428;SDS011;2227;47.810;8.810;2023-04-25T15:56:17;978.03;;;903.67;;
4428;SDS011;2227;47.810;8.810;2023-04-25T15:58:44;971.55;;;897.22;;
4428;SDS011;2227;47.810;8.810;2023-04-25T16:01:10;970.05;;;896.33;;
4428;SDS011;2227;47.810;8.810;2023-04-25T16:03:37;965.55;;;892.20;;
4428;SDS011;2227;47.810;8.810;2023-04-25T16:06:04;970.55;;;896.70;;
4428;SDS011;2227;47.810;8.810;2023-04-25T16:08:31;961.60;;;886.60;;
4428;SDS011;2227;47.810;8.810;2023-04-25T16:11:01;954.97;;;881.17;;
4428;SDS011;2227;47.810;8.810;2023-04-25T16:13:28;966.50;;;892.45;;
4428;SDS011;2227;47.810;8.810;2023-04-25T16:15:55;958.22;;;884.53;;
4428;SDS011;2227;47.810;8.810;2023-04-25T16:18:22;964.43;;;890.83;;
4428;SDS011;2227;47.810;8.810;2023-04-25T16:20:49;971.67;;;897.88;;
4428;SDS011;2227;47.810;8.810;2023-04-25T16:23:16;971.90;;;897.67;;
4428;SDS011;2227;47.810;8.810;2023-04-25T16:25:43;974.40;;;900.53;;
4428;SDS011;2227;47.810;8.810;2023-04-25T16:28:10;975.63;;;901.90;;
4428;SDS011;2227;47.810;8.810;2023-04-25T16:30:37;970.80;;;896.65;;
4428;SDS011;2227;47.810;8.810;2023-04-25T16:33:04;967.22;;;892.30;;
4428;SDS011;2227;47.810;8.810;2023-04-25T16:35:31;959.03;;;884.20;;
4428;SDS011;2227;47.810;8.810;2023-04-25T16:37:58;965.80;;;890.57;;
4428;SDS011;2227;47.810;8.810;2023-04-25T16:40:25;947.80;;;873.03;;
4428;SDS011;2227;47.810;8.810;2023-04-25T16:42:52;951.83;;;876.80;;
4428;SDS011;2227;47.810;8.810;2023-04-25T16:45:19;949.03;;;873.53;;
4428;SDS011;2227;47.810;8.810;2023-04-25T16:47:46;928.53;;;854.10;;
4428;SDS011;2227;47.810;8.810;2023-04-25T16:50:13;922.08;;;847.35;;
4428;SDS011;2227;47.810;8.810;2023-04-25T16:52:40;922.70;;;848.00;;
4428;SDS011;2227;47.810;8.810;2023-04-25T16:55:09;924.78;;;850.28;;
4428;SDS011;2227;47.810;8.810;2023-04-25T16:57:36;922.90;;;849.08;;
4428;SDS011;2227;47.810;8.810;2023-04-25T17:00:03;914.05;;;840.95;;
4428;SDS011;2227;47.810;8.810;2023-04-25T17:02:31;919.00;;;845.60;;
4428;SDS011;2227;47.810;8.810;2023-04-25T17:04:58;913.03;;;839.72;;
4428;SDS011;2227;47.810;8.810;2023-04-25T17:07:25;916.80;;;842.28;;
4428;SDS011;2227;47.810;8.810;2023-04-25T17:09:52;911.03;;;836.65;;
4428;SDS011;2227;47.810;8.810;2023-04-25T17:12:19;904.72;;;830.40;;
4428;SDS011;2227;47.810;8.810;2023-04-25T17:14:47;909.13;;;833.83;;
4428;SDS011;2227;47.810;8.810;2023-04-25T17:17:14;889.63;;;813.40;;
4428;SDS011;2227;47.810;8.810;2023-04-25T17:19:43;884.60;;;808.70;;
4428;SDS011;2227;47.810;8.810;2023-04-25T17:22:10;871.55;;;795.45;;
4428;SDS011;2227;47.810;8.810;2023-04-25T17:24:37;872.67;;;796.28;;
4428;SDS011;2227;47.810;8.810;2023-04-25T17:27:05;873.90;;;797.35;;
4428;SDS011;2227;47.810;8.810;2023-04-25T17:29:32;869.78;;;793.38;;
4428;SDS011;2227;47.810;8.810;2023-04-25T17:32:00;874.28;;;798.47;;
4428;SDS011;2227;47.810;8.810;2023-04-25T17:34:27;874.13;;;798.47;;
4428;SDS011;2227;47.810;8.810;2023-04-25T17:36:54;874.05;;;798.03;;
4428;SDS011;2227;47.810;8.810;2023-04-25T17:39:20;873.20;;;797.80;;
4428;SDS011;2227;47.810;8.810;2023-04-25T17:41:47;869.28;;;793.75;;
4428;SDS011;2227;47.810;8.810;2023-04-25T17:44:14;875.67;;;799.88;;
4428;SDS011;2227;47.810;8.810;2023-04-25T17:46:41;872.08;;;796.25;;
4428;SDS011;2227;47.810;8.810;2023-04-25T17:49:07;865.05;;;789.50;;
4428;SDS011;2227;47.810;8.810;2023-04-25T17:51:34;873.58;;;798.38;;
4428;SDS011;2227;47.810;8.810;2023-04-25T17:54:01;857.20;;;781.60;;
4428;SDS011;2227;47.810;8.810;2023-04-25T17:56:28;859.45;;;783.85;;
4428;SDS011;2227;47.810;8.810;2023-04-25T17:58:55;854.70;;;778.53;;
4428;SDS011;2227;47.810;8.810;2023-04-25T18:01:22;864.88;;;788.55;;
4428;SDS011;2227;47.810;8.810;2023-04-25T18:03:49;844.13;;;769.05;;
4428;SDS011;2227;47.810;8.810;2023-04-25T18:06:16;846.60;;;769.92;;
4428;SDS011;2227;47.810;8.810;2023-04-25T18:08:44;839.55;;;763.15;;
4428;SDS011;2227;47.810;8.810;2023-04-25T18:11:11;846.85;;;771.10;;
4428;SDS011;2227;47.810;8.810;2023-04-25T18:13:38;837.70;;;761.47;;